Time;durP1;ratioP1;P1;durP2;ratioP2;P2;SDS_P1;SDS_P2;PMS_P1;PMS_P2;Temp;Humidity;BMP_temperature;BMP_pressure;BME280_temperature;BME280_humidity;BME280_pressure;Samples;Min_cycle;Max_cycle;Signal;HPM_P1;HPM_P2
2023/11/04 00:02:02;;;;;;;18.73;8.30;;;;;;;7.43;85.68;96040.84;5056763;28;20030;-73
2023/11/04 00:04:27;;;;;;;13.40;7.53;;;;;;;7.32;85.89;96020.56;4992207;28;20399;-73
2023/11/04 00:06:52;;;;;;;18.17;7.85;;;;;;;7.38;85.32;96040.88;4991761;28;20491;-73
2023/11/04 00:09:18;;;;;;;13.10;7.60;;;;;;;7.34;85.99;96039.81;4991880;28;20060;-73
2023/11/04 00:11:45;;;;;;;12.30;7.18;;;;;;;7.20;85.73;96028.94;4991603;28;20029;-72
2023/11/04 00:14:11;;;;;;;9.40;6.50;;;;;;;7.32;85.53;96036.63;4991718;28;20113;-72
2023/11/04 00:16:36;;;;;;;13.02;6.43;;;;;;;7.28;85.98;96046.28;4975355;28;20101;-73
2023/11/04 00:19:02;;;;;;;14.50;7.10;;;;;;;7.25;85.43;96052.19;4991720;28;20504;-72
2023/11/04 00:21:27;;;;;;;10.40;6.68;;;;;;;7.14;85.47;96046.06;5009151;28;20056;-74
2023/11/04 00:23:52;;;;;;;13.55;6.57;;;;;;;7.22;85.54;96052.72;4991430;28;20721;-72
2023/11/04 00:26:19;;;;;;;10.95;6.47;;;;;;;7.17;85.66;96052.75;4991533;28;20022;-72
2023/11/04 00:28:51;;;;;;;12.45;6.10;;;;;;;7.17;85.87;96050.88;4987047;28;20034;-73
2023/11/04 00:31:16;;;;;;;10.95;6.00;;;;;;;7.12;86.08;96047.44;5009368;28;20041;-73
2023/11/04 00:33:42;;;;;;;10.55;6.00;;;;;;;7.11;85.86;96045.84;4975480;28;20033;-73
2023/11/04 00:36:08;;;;;;;12.50;6.88;;;;;;;7.12;85.64;96052.81;5008630;28;20046;-74
2023/11/04 00:38:34;;;;;;;12.13;5.60;;;;;;;7.10;85.44;96055.72;5009285;28;20055;-73
2023/11/04 00:40:59;;;;;;;12.05;7.15;;;;;;;7.13;85.49;96062.41;4991442;28;20117;-73
2023/11/04 00:43:24;;;;;;;11.05;6.22;;;;;;;7.16;85.27;96077.94;4997252;28;20033;-73
2023/11/04 00:45:51;;;;;;;11.40;5.50;;;;;;;7.15;85.77;96073.66;4997429;28;20038;-74
2023/11/04 00:48:17;;;;;;;12.73;4.80;;;;;;;7.14;84.73;96072.06;4981790;28;20026;-73
2023/11/04 00:50:42;;;;;;;10.05;4.72;;;;;;;7.07;85.28;96055.50;4997974;28;20129;-72
2023/11/04 00:53:08;;;;;;;8.35;4.70;;;;;;;7.10;85.37;96070.97;5015382;28;20395;-73
2023/11/04 00:55:33;;;;;;;10.48;4.85;;;;;;;7.07;84.99;96076.91;4997159;28;20083;-72
2023/11/04 00:57:58;;;;;;;7.40;4.40;;;;;;;6.97;85.55;96073.19;5015140;28;20548;-72
2023/11/04 01:00:26;;;;;;;11.43;4.90;;;;;;;6.98;85.46;96069.44;5015148;28;20447;-73
2023/11/04 01:02:55;;;;;;;11.50;5.13;;;;;;;6.97;85.37;96062.50;4981518;28;20446;-73
2023/11/04 01:05:24;;;;;;;9.50;4.72;;;;;;;6.89;85.33;96057.69;4997711;28;20450;-73
2023/11/04 01:07:50;;;;;;;12.15;5.43;;;;;;;6.85;85.25;96045.94;4982148;28;20532;-73
2023/11/04 01:10:16;;;;;;;11.13;6.30;;;;;;;6.84;85.83;96051.56;5015193;28;20058;-73
2023/11/04 01:12:41;;;;;;;12.27;6.05;;;;;;;6.90;85.07;96072.69;4997688;28;20036;-73
2023/11/04 01:15:07;;;;;;;12.30;6.50;;;;;;;6.85;85.09;96069.22;5014479;28;20057;-73
2023/11/04 01:17:32;;;;;;;12.95;5.88;;;;;;;6.85;85.59;96069.22;4981362;28;20389;-73
2023/11/04 01:19:58;;;;;;;12.75;6.70;;;;;;;6.76;86.06;96070.84;4981223;28;20037;-74
2023/11/04 01:22:23;;;;;;;9.77;5.45;;;;;;;6.66;85.51;96065.53;4981289;28;20056;-73
2023/11/04 01:24:48;;;;;;;11.43;6.35;;;;;;;6.68;85.78;96077.56;4980746;28;20034;-73
2023/11/04 01:27:14;;;;;;;10.55;5.78;;;;;;;6.61;86.05;96069.00;4981086;28;20485;-73
2023/11/04 01:29:39;;;;;;;9.18;5.85;;;;;;;6.57;86.54;96078.66;5035337;28;20031;-73
2023/11/04 01:32:05;;;;;;;9.20;4.82;;;;;;;6.52;86.75;96070.66;5013762;28;20024;-73
2023/11/04 01:34:31;;;;;;;9.23;5.93;;;;;;;6.54;85.53;96063.16;4996981;28;20038;-73
2023/11/04 01:36:56;;;;;;;9.95;5.63;;;;;;;6.46;86.29;96063.72;4997319;28;20030;-74
2023/11/04 01:39:22;;;;;;;10.57;5.38;;;;;;;6.48;86.62;96074.94;4997282;28;20050;-73
2023/11/04 01:41:48;;;;;;;7.10;4.95;;;;;;;6.35;87.07;96075.47;4997394;28;20032;-73
2023/11/04 01:44:14;;;;;;;8.30;5.03;;;;;;;6.42;86.59;96086.69;4980425;28;20492;-73
2023/11/04 01:46:39;;;;;;;10.27;4.80;;;;;;;6.35;86.92;96075.47;4980730;28;20075;-73
2023/11/04 01:49:05;;;;;;;7.90;5.03;;;;;;;6.36;86.43;96070.94;4997034;28;20042;-73
2023/11/04 01:51:31;;;;;;;7.32;4.90;;;;;;;6.37;86.76;96077.91;4980911;28;20026;-73
2023/11/04 01:53:56;;;;;;;9.65;4.90;;;;;;;6.27;86.32;96062.66;4993708;28;20042;-74
2023/11/04 01:56:33;;;;;;;6.03;5.20;;;;;;;6.27;86.92;96060.00;4993854;28;20025;-74
2023/11/04 01:58:59;;;;;;;9.57;5.50;;;;;;;6.23;86.89;96066.97;4977435;28;20509;-73
2023/11/04 02:01:25;;;;;;;7.20;5.32;;;;;;;6.21;86.76;96061.06;4977600;28;20034;-74
2023/11/04 02:03:54;;;;;;;8.45;4.85;;;;;;;6.31;86.60;96079.75;4977520;28;20767;-73
2023/11/04 02:06:20;;;;;;;7.60;4.55;;;;;;;6.30;87.37;96062.16;4977514;28;20030;-71
2023/11/04 02:08:46;;;;;;;10.13;4.85;;;;;;;6.27;86.91;96057.31;4993758;28;20547;-71
2023/11/04 02:11:12;;;;;;;7.25;5.00;;;;;;;6.35;86.58;96062.09;4977578;28;20022;-72
2023/11/04 02:13:37;;;;;;;7.80;4.60;;;;;;;6.27;87.14;96046.63;4977372;28;20505;-72
2023/11/04 02:16:04;;;;;;;7.13;4.80;;;;;;;6.36;86.57;96070.94;4993234;28;20033;-72
2023/11/04 02:18:30;;;;;;;9.68;4.68;;;;;;;6.37;87.19;96067.22;4977317;28;20041;-72
2023/11/04 02:20:59;;;;;;;7.57;4.30;;;;;;;6.34;86.99;96060.53;4977170;28;20493;-72
2023/11/04 02:23:28;;;;;;;6.18;4.05;;;;;;;6.35;86.70;96059.44;4993398;28;20034;-73
2023/11/04 02:25:53;;;;;;;9.00;4.38;;;;;;;6.42;86.85;96059.97;4992965;28;20064;-72
2023/11/04 02:28:19;;;;;;;8.82;4.28;;;;;;;6.50;86.59;96067.44;4977081;28;20489;-71
2023/11/04 02:30:45;;;;;;;5.50;4.10;;;;;;;6.47;86.81;96067.16;5012181;28;20026;-72
2023/11/04 02:33:10;;;;;;;7.70;4.22;;;;;;;6.44;86.19;96057.81;4993351;28;20040;-71
2023/11/04 02:35:36;;;;;;;9.15;4.18;;;;;;;6.48;86.33;96058.91;5010554;28;20041;-72
2023/11/04 02:38:01;;;;;;;8.45;4.20;;;;;;;6.54;86.52;96068.50;4977192;28;20714;-72
2023/11/04 02:40:27;;;;;;;11.00;4.18;;;;;;;6.56;86.45;96065.56;4977340;28;20022;-72
2023/11/04 02:42:53;;;;;;;6.90;4.22;;;;;;;6.57;86.16;96062.63;4976961;28;20167;-73
2023/11/04 02:45:18;;;;;;;5.70;4.10;;;;;;;6.63;86.41;96064.19;4976342;28;20053;-72
2023/11/04 02:47:44;;;;;;;6.88;3.72;;;;;;;6.59;86.40;96060.47;4976760;28;20038;-73
2023/11/04 02:50:09;;;;;;;7.28;3.72;;;;;;;6.61;86.03;96055.66;4993164;28;20033;-73
2023/11/04 02:52:35;;;;;;;5.15;3.85;;;;;;;6.57;85.53;96046.56;4993024;28;20033;-73
2023/11/04 02:55:00;;;;;;;5.85;3.83;;;;;;;6.65;86.26;96058.59;4976533;28;20037;-73
2023/11/04 02:57:26;;;;;;;7.25;4.00;;;;;;;6.65;85.82;96048.66;4992876;28;20040;-73
2023/11/04 02:59:51;;;;;;;5.07;3.45;;;;;;;6.71;85.48;96050.28;4976792;28;20030;-73
2023/11/04 03:02:16;;;;;;;7.43;3.70;;;;;;;6.70;85.11;96051.34;4994171;28;20046;-72
2023/11/04 03:04:42;;;;;;;9.50;3.92;;;;;;;6.73;85.25;96061.50;4991855;28;20477;-73
2023/11/04 03:07:07;;;;;;;5.38;3.40;;;;;;;6.73;85.04;96058.81;4975913;28;20398;-73
2023/11/04 03:09:33;;;;;;;5.57;3.65;;;;;;;6.74;84.69;96063.13;4992831;28;20108;-72
2023/11/04 03:11:59;;;;;;;7.68;3.28;;;;;;;6.71;84.86;96063.66;4976339;28;20037;-73
2023/11/04 03:14:25;;;;;;;7.90;3.28;;;;;;;6.61;84.95;96055.66;4976132;28;20026;-73
2023/11/04 03:16:54;;;;;;;4.72;3.20;;;;;;;6.71;84.25;96068.19;4976312;28;20034;-73
2023/11/04 03:19:19;;;;;;;5.53;3.70;;;;;;;6.68;84.59;96069.53;4976300;28;20030;-72
2023/11/04 03:21:45;;;;;;;5.60;3.78;;;;;;;6.55;84.72;96064.75;4976611;28;20511;-71
2023/11/04 03:24:11;;;;;;;6.38;3.58;;;;;;;6.61;84.68;96073.56;4976220;28;20034;-73
2023/11/04 03:26:37;;;;;;;6.63;3.33;;;;;;;6.51;84.38;96068.25;4992419;28;20057;-71
2023/11/04 03:29:02;;;;;;;3.55;2.83;;;;;;;6.44;84.79;96068.50;5011223;28;20050;-71
2023/11/04 03:31:28;;;;;;;4.68;3.17;;;;;;;6.40;84.73;96066.66;4995808;28;20408;-72
2023/11/04 03:33:53;;;;;;;5.03;3.78;;;;;;;6.39;84.15;96071.22;5009607;28;20029;-71
2023/11/04 03:36:18;;;;;;;5.43;3.30;;;;;;;6.35;85.19;96070.13;5009697;28;20042;-73
2023/11/04 03:38:44;;;;;;;8.38;3.50;;;;;;;6.31;84.55;96079.75;4992707;28;20037;-72
2023/11/04 03:41:10;;;;;;;5.03;3.50;;;;;;;6.31;84.61;96079.75;4992581;28;20044;-72
2023/11/04 03:43:35;;;;;;;5.07;3.50;;;;;;;6.33;84.14;96074.94;4992271;28;20025;-72
2023/11/04 03:46:02;;;;;;;5.65;3.20;;;;;;;6.39;83.65;96079.22;4991687;28;20038;-73
2023/11/04 03:48:27;;;;;;;5.90;3.38;;;;;;;6.37;84.28;96067.97;5009736;28;20469;-72
2023/11/04 03:50:53;;;;;;;6.38;3.63;;;;;;;6.36;84.24;96065.59;4975892;28;20045;-73
2023/11/04 03:53:18;;;;;;;7.78;3.38;;;;;;;6.48;84.63;96074.94;4992185;28;20109;-73
2023/11/04 03:55:43;;;;;;;6.00;3.75;;;;;;;6.45;84.17;96058.63;4976087;28;20041;-72
2023/11/04 03:58:09;;;;;;;6.32;3.47;;;;;;;6.52;84.20;96064.50;5009653;28;20476;-73
2023/11/04 04:00:35;;;;;;;6.50;3.92;;;;;;;6.56;83.89;96066.34;4975730;28;20045;-73
2023/11/04 04:03:00;;;;;;;7.05;3.80;;;;;;;6.56;84.72;96071.69;4991956;28;20503;-72
2023/11/04 04:05:26;;;;;;;5.47;3.70;;;;;;;6.57;84.08;96073.31;4991570;28;20179;-71
2023/11/04 04:07:51;;;;;;;4.32;3.55;;;;;;;6.56;84.99;96065.56;4975856;28;20033;-73
2023/11/04 04:10:17;;;;;;;6.38;3.78;;;;;;;6.59;84.38;96071.16;4975778;28;20037;-72
2023/11/04 04:12:42;;;;;;;7.13;3.75;;;;;;;6.50;84.08;96063.97;5009352;28;20037;-72
2023/11/04 04:15:08;;;;;;;5.68;4.00;;;;;;;6.52;83.99;96059.13;4975035;28;20041;-71
2023/11/04 04:17:33;;;;;;;5.28;3.97;;;;;;;6.57;84.50;96062.63;5008276;28;20033;-72
2023/11/04 04:19:59;;;;;;;7.15;3.90;;;;;;;6.48;84.46;96042.84;4991886;28;20091;-73
2023/11/04 04:22:24;;;;;;;7.32;4.30;;;;;;;6.58;84.37;96058.84;4991820;28;20105;-73
2023/11/04 04:24:50;;;;;;;5.35;3.90;;;;;;;6.49;84.11;96036.41;4991441;28;20029;-74
2023/11/04 04:27:15;;;;;;;5.28;4.05;;;;;;;6.56;84.20;96047.63;4991638;28;20533;-73
2023/11/04 04:29:41;;;;;;;5.25;4.00;;;;;;;6.48;83.99;96039.38;5013427;28;20130;-72
2023/11/04 04:32:06;;;;;;;5.95;4.10;;;;;;;6.39;83.94;96016.94;4992014;28;20040;-72
2023/11/04 04:34:32;;;;;;;5.75;4.13;;;;;;;6.28;84.38;96010.03;4991591;28;20403;-72
2023/11/04 04:36:58;;;;;;;5.35;4.20;;;;;;;6.34;84.25;96016.94;5009030;28;20022;-73
2023/11/04 04:39:24;;;;;;;7.35;4.65;;;;;;;6.28;84.05;96016.16;4991797;28;20129;-73
2023/11/04 04:41:49;;;;;;;8.10;4.10;;;;;;;6.25;84.31;96017.50;4991543;28;20210;-73
2023/11/04 04:44:15;;;;;;;5.85;4.78;;;;;;;6.17;84.00;96011.91;4991129;28;20053;-73
2023/11/04 04:46:40;;;;;;;6.20;4.72;;;;;;;6.16;83.57;96013.75;5006330;23;20054;-72
2023/11/04 04:49:06;;;;;;;6.53;4.40;;;;;;;6.23;84.20;96016.19;5106651;28;20047;-71
2023/11/04 04:51:32;;;;;;;8.85;5.20;;;;;;;6.13;84.19;95990.28;5073382;28;20026;-70
2023/11/04 04:53:57;;;;;;;8.40;5.03;;;;;;;6.23;84.19;96008.94;5031365;28;20099;-70
2023/11/04 04:56:26;;;;;;;9.02;5.22;;;;;;;6.23;83.77;96002.81;5086943;28;20589;-71
2023/11/04 04:58:52;;;;;;;6.47;4.80;;;;;;;6.19;83.99;95994.53;5100125;28;20040;-71
2023/11/04 05:01:23;;;;;;;9.20;5.05;;;;;;;6.14;83.87;95975.03;5044863;28;20024;-70
2023/11/04 05:03:49;;;;;;;6.15;4.90;;;;;;;6.16;84.17;95991.59;4990756;28;20040;-70
2023/11/04 05:06:14;;;;;;;6.38;5.00;;;;;;;6.03;83.72;95968.09;5093725;28;20153;-70
2023/11/04 05:08:40;;;;;;;7.25;4.60;;;;;;;6.13;84.24;95984.94;5093814;28;20036;-71
2023/11/04 05:11:06;;;;;;;8.50;4.78;;;;;;;6.10;83.74;95982.78;5076557;28;20039;-71
2023/11/04 05:13:31;;;;;;;8.25;5.18;;;;;;;6.07;84.58;95977.16;5110192;28;20044;-71
2023/11/04 05:15:57;;;;;;;8.27;5.32;;;;;;;6.03;83.78;95970.78;5111007;28;20030;-71
2023/11/04 05:18:22;;;;;;;7.53;4.95;;;;;;;6.02;83.43;95979.88;5111319;28;20112;-71
2023/11/04 05:20:48;;;;;;;6.63;5.15;;;;;;;6.02;83.51;95971.88;5093349;28;20050;-70
2023/11/04 05:23:14;;;;;;;6.15;4.60;;;;;;;6.02;83.81;95985.22;4992213;28;20032;-71
2023/11/04 05:25:39;;;;;;;6.18;5.03;;;;;;;6.01;83.25;95988.94;5072696;28;20106;-71
2023/11/04 05:28:05;;;;;;;6.57;5.72;;;;;;;6.01;83.60;95968.38;5073862;28;20040;-69
2023/11/04 05:30:30;;;;;;;8.23;6.10;;;;;;;6.04;83.23;95967.03;5077301;28;20028;-72
2023/11/04 05:33:00;;;;;;;8.98;6.75;;;;;;;6.07;82.97;95958.47;5096850;28;20039;-71
2023/11/04 05:35:26;;;;;;;6.82;5.85;;;;;;;6.08;82.75;95968.09;5006636;28;20083;-70
2023/11/04 05:37:51;;;;;;;8.93;6.78;;;;;;;6.13;84.03;95965.41;5073151;28;20047;-72
2023/11/04 05:40:16;;;;;;;9.40;6.63;;;;;;;6.11;84.05;95951.53;5068290;28;20532;-71
2023/11/04 05:42:42;;;;;;;9.57;6.88;;;;;;;6.01;84.36;95940.88;5063253;28;20024;-71
2023/11/04 05:45:08;;;;;;;9.95;6.70;;;;;;;6.13;83.85;95965.41;5114706;28;20414;-71
2023/11/04 05:47:33;;;;;;;11.98;7.78;;;;;;;6.09;84.31;95951.00;5065496;28;20025;-70
2023/11/04 05:49:59;;;;;;;9.35;7.35;;;;;;;6.11;84.11;95954.22;5079582;28;20079;-70
2023/11/04 05:52:25;;;;;;;11.77;8.30;;;;;;;6.04;84.05;95935.00;5011238;28;20021;-71
2023/11/04 05:54:50;;;;;;;9.43;7.80;;;;;;;6.16;83.99;95954.19;5010907;28;20048;-71
2023/11/04 05:57:16;;;;;;;13.25;8.68;;;;;;;6.17;83.77;95951.25;5010941;28;20022;-72
2023/11/04 05:59:45;;;;;;;11.93;8.77;;;;;;;6.19;84.24;95948.28;5010031;28;20040;-70
2023/11/04 06:02:13;;;;;;;10.82;9.05;;;;;;;6.17;84.33;95934.41;5064188;28;20022;-71
2023/11/04 06:04:38;;;;;;;12.13;9.18;;;;;;;6.20;83.50;95923.19;5075619;28;20034;-71
2023/11/04 06:07:04;;;;;;;14.48;10.48;;;;;;;6.24;83.68;95929.56;4991390;28;20042;-73
2023/11/04 06:09:31;;;;;;;12.20;9.63;;;;;;;6.25;83.40;95936.53;5067113;28;20552;-70
2023/11/04 06:11:57;;;;;;;13.35;11.00;;;;;;;6.20;83.86;95941.88;5065092;28;20037;-70
2023/11/04 06:14:23;;;;;;;11.57;10.25;;;;;;;6.24;84.33;95945.59;5010348;28;20046;-70
2023/11/04 06:16:48;;;;;;;13.68;9.95;;;;;;;6.25;83.61;95941.88;5004322;28;20048;-71
2023/11/04 06:19:13;;;;;;;16.08;11.10;;;;;;;6.24;84.33;95935.72;4991280;28;20034;-73
2023/11/04 06:21:39;;;;;;;16.55;12.98;;;;;;;6.23;84.09;95922.66;5073182;28;20434;-74
2023/11/04 06:24:04;;;;;;;13.13;11.68;;;;;;;5.92;84.24;95870.38;5070822;28;20049;-74
2023/11/04 06:26:30;;;;;;;22.50;17.13;;;;;;;6.24;83.91;95924.22;5073556;28;20581;-73
2023/11/04 06:28:55;;;;;;;15.77;12.65;;;;;;;6.22;83.59;95921.84;5008049;28;20555;-72
2023/11/04 06:31:22;;;;;;;26.73;18.50;;;;;;;6.29;83.29;95932.22;5043222;28;20513;-74
2023/11/04 06:33:47;;;;;;;24.10;17.52;;;;;;;6.33;83.33;95938.63;5073579;28;20110;-71
2023/11/04 06:36:13;;;;;;;40.65;26.02;;;;;;;6.36;84.03;95939.97;5010081;28;20052;-73
2023/11/04 06:38:39;;;;;;;19.02;14.40;;;;;;;6.23;83.54;95923.44;5078561;28;20038;-73
2023/11/04 06:41:11;;;;;;;43.95;30.52;;;;;;;6.34;83.77;95923.41;5077851;28;20033;-71
2023/11/04 06:43:38;;;;;;;15.30;13.48;;;;;;;6.30;84.05;95922.34;5002004;28;20140;-73
2023/11/04 06:46:08;;;;;;;19.30;15.25;;;;;;;6.40;83.50;95923.09;5083589;28;20034;-72
2023/11/04 06:48:34;;;;;;;17.77;13.88;;;;;;;6.33;83.30;95911.91;5072064;28;20548;-72
2023/11/04 06:50:59;;;;;;;16.17;14.30;;;;;;;6.39;84.18;95926.88;5088737;28;20110;-72
2023/11/04 06:53:25;;;;;;;18.35;14.13;;;;;;;6.23;83.52;95901.25;5059088;28;20390;-72
2023/11/04 06:55:50;;;;;;;17.88;14.15;;;;;;;6.43;82.92;95917.22;5092249;28;20665;-71
2023/11/04 06:58:16;;;;;;;15.45;13.30;;;;;;;6.43;83.36;95911.88;5086392;28;20087;-73
2023/11/04 07:00:41;;;;;;;21.67;16.17;;;;;;;6.46;83.54;95911.31;5108788;28;20024;-72
2023/11/04 07:03:06;;;;;;;18.13;14.50;;;;;;;6.45;84.00;95907.03;5086896;28;20515;-72
2023/11/04 07:05:32;;;;;;;14.90;12.10;;;;;;;6.48;83.08;95909.19;5106216;28;20023;-73
2023/11/04 07:07:57;;;;;;;19.17;13.68;;;;;;;6.50;83.54;95904.34;5083377;28;20032;-72
2023/11/04 07:10:24;;;;;;;15.93;13.02;;;;;;;6.43;83.58;95898.50;5080080;28;20668;-72
2023/11/04 07:12:49;;;;;;;17.63;13.95;;;;;;;6.48;83.67;95893.13;5075193;28;20525;-75
2023/11/04 07:15:15;;;;;;;18.48;14.55;;;;;;;6.53;83.46;95906.47;5088287;28;20019;-74
2023/11/04 07:17:40;;;;;;;16.73;14.73;;;;;;;6.51;84.05;95897.13;5094784;28;20133;-73
2023/11/04 07:20:08;;;;;;;17.58;13.50;;;;;;;6.58;83.89;95898.41;5098232;28;20059;-72
2023/11/04 07:22:34;;;;;;;17.05;15.25;;;;;;;6.50;83.39;95888.31;5100017;28;20104;-73
2023/11/04 07:24:59;;;;;;;15.63;12.05;;;;;;;6.61;83.71;95892.53;5092648;28;20066;-72
2023/11/04 07:27:25;;;;;;;15.10;12.52;;;;;;;6.38;83.29;95866.44;5094736;28;20038;-72
2023/11/04 07:29:50;;;;;;;14.15;12.30;;;;;;;6.52;83.25;95880.00;5079570;28;20082;-72
2023/11/04 07:32:16;;;;;;;17.33;13.52;;;;;;;6.68;84.16;95895.69;5092528;28;20058;-75
2023/11/04 07:34:41;;;;;;;18.95;14.50;;;;;;;6.71;83.42;95887.13;5103179;28;20047;-73
2023/11/04 07:37:06;;;;;;;16.73;12.20;;;;;;;6.72;83.60;95895.97;5063716;28;20118;-73
2023/11/04 07:39:34;;;;;;;15.73;13.88;;;;;;;6.75;83.10;95888.16;5107179;28;20026;-74
2023/11/04 07:42:00;;;;;;;15.13;12.93;;;;;;;6.73;83.41;95893.00;5095149;28;20049;-74
2023/11/04 07:44:26;;;;;;;19.83;16.15;;;;;;;6.67;83.42;95875.38;5080627;28;20024;-73
2023/11/04 07:46:51;;;;;;;18.02;13.80;;;;;;;6.77;82.98;95886.00;5099987;28;20380;-73
2023/11/04 07:49:16;;;;;;;14.80;12.27;;;;;;;6.64;84.08;95854.53;5090725;28;20043;-75
2023/11/04 07:51:42;;;;;;;14.05;11.75;;;;;;;6.80;83.30;95872.09;5093383;28;20043;-73
2023/11/04 07:54:07;;;;;;;13.40;12.07;;;;;;;6.90;83.32;95888.09;5095959;28;20032;-73
2023/11/04 07:56:32;;;;;;;14.80;11.48;;;;;;;6.93;83.20;95882.16;5066243;28;20110;-74
2023/11/04 07:58:58;;;;;;;12.75;11.40;;;;;;;7.01;83.37;95874.63;5095108;28;20051;-73
2023/11/04 08:01:23;;;;;;;11.73;10.52;;;;;;;6.90;83.21;95850.63;5073955;28;20077;-73
2023/11/04 08:03:49;;;;;;;11.45;10.35;;;;;;;6.98;82.88;95855.38;5107965;28;20465;-73
2023/11/04 08:06:16;;;;;;;15.35;12.82;;;;;;;7.14;83.03;95874.00;5093772;28;20035;-73
2023/11/04 08:08:42;;;;;;;14.48;11.10;;;;;;;7.19;82.76;95868.63;5078194;28;20479;-73
2023/11/04 08:11:08;;;;;;;12.60;11.30;;;;;;;7.21;81.88;95853.06;5101332;28;20035;-72
2023/11/04 08:13:33;;;;;;;12.02;10.23;;;;;;;7.28;81.90;95856.22;5096120;28;20103;-73
2023/11/04 08:15:59;;;;;;;12.98;10.38;;;;;;;7.39;81.83;95855.06;5082509;28;20487;-73
2023/11/04 08:18:31;;;;;;;14.48;11.18;;;;;;;7.44;81.65;95852.34;5093852;28;20095;-73
2023/11/04 08:20:57;;;;;;;14.70;10.98;;;;;;;7.45;81.74;95848.56;5085349;28;20093;-75
2023/11/04 08:23:22;;;;;;;11.73;10.23;;;;;;;7.55;82.17;95851.16;5090187;28;20031;-74
2023/11/04 08:25:48;;;;;;;14.57;11.07;;;;;;;7.55;81.76;95843.13;5076593;28;20037;-73
2023/11/04 08:28:13;;;;;;;15.82;10.52;;;;;;;7.56;81.85;95832.13;5085741;28;20043;-73
2023/11/04 08:30:39;;;;;;;17.48;12.23;;;;;;;7.70;81.44;95834.16;5059928;28;20036;-74
2023/11/04 08:33:05;;;;;;;14.38;10.77;;;;;;;7.71;81.24;95809.75;5108093;28;20028;-75
2023/11/04 08:35:30;;;;;;;20.08;12.75;;;;;;;7.82;81.01;95829.97;5084131;28;20064;-73
2023/11/04 08:37:56;;;;;;;22.00;12.38;;;;;;;7.82;81.05;95821.94;5103826;28;20028;-73
2023/11/04 08:40:21;;;;;;;20.70;13.45;;;;;;;7.94;80.74;95822.34;5101275;28;20039;-74
2023/11/04 08:42:46;;;;;;;16.45;11.10;;;;;;;7.98;80.64;95812.63;5090683;28;20039;-73
2023/11/04 08:45:13;;;;;;;11.60;10.10;;;;;;;8.14;80.18;95821.31;5091097;28;20509;-73
2023/11/04 08:47:40;;;;;;;15.00;11.60;;;;;;;8.27;80.01;95818.75;5083718;28;20053;-73
2023/11/04 08:50:07;;;;;;;13.13;10.57;;;;;;;8.39;79.75;95821.00;5101667;28;20032;-73
2023/11/04 08:52:32;;;;;;;11.85;9.77;;;;;;;8.40;79.64;95819.13;5073780;28;20024;-74
2023/11/04 08:55:00;;;;;;;10.10;8.75;;;;;;;8.51;79.20;95809.84;5100454;28;20486;-74
2023/11/04 08:57:25;;;;;;;10.45;9.25;;;;;;;8.46;78.71;95797.31;5096502;28;20777;-74
2023/11/04 08:59:51;;;;;;;13.75;10.52;;;;;;;8.47;79.02;95795.44;5102025;28;20028;-74
2023/11/04 09:02:16;;;;;;;14.02;11.45;;;;;;;8.46;78.92;95788.47;5056176;28;20516;-74
2023/11/04 09:04:43;;;;;;;16.10;12.40;;;;;;;8.50;78.75;95798.31;5118105;28;20036;-73
2023/11/04 09:07:09;;;;;;;17.30;13.27;;;;;;;8.54;77.88;95790.50;5112500;28;20111;-74
2023/11/04 09:09:34;;;;;;;14.15;10.98;;;;;;;8.55;78.09;95792.09;5073980;28;20103;-74
2023/11/04 09:12:00;;;;;;;11.93;9.40;;;;;;;8.51;78.33;95791.09;5105181;28;20421;-74
2023/11/04 09:14:25;;;;;;;10.73;9.10;;;;;;;8.50;77.96;95786.78;5103363;28;20040;-74
2023/11/04 09:16:50;;;;;;;8.98;8.02;;;;;;;8.49;77.99;95782.53;5100585;28;20035;-73
2023/11/04 09:19:16;;;;;;;8.40;6.70;;;;;;;8.49;77.68;95771.81;5067827;28;20082;-74
2023/11/04 09:21:41;;;;;;;9.23;7.05;;;;;;;8.32;77.68;95740.94;5106881;28;20053;-74
2023/11/04 09:24:07;;;;;;;8.40;7.20;;;;;;;8.67;77.33;95762.94;5093500;28;20101;-73
2023/11/04 09:26:32;;;;;;;7.22;6.53;;;;;;;8.64;77.52;95753.59;5079318;28;20038;-73
2023/11/04 09:28:58;;;;;;;8.38;6.47;;;;;;;8.82;77.18;95770.78;5106314;28;20051;-73
2023/11/04 09:31:23;;;;;;;7.13;5.95;;;;;;;8.86;77.17;95755.66;5076966;28;20035;-73
2023/11/04 09:33:48;;;;;;;8.43;6.95;;;;;;;8.86;77.03;95751.09;5074352;28;20032;-73
2023/11/04 09:36:14;;;;;;;6.60;5.90;;;;;;;8.84;76.92;95747.13;5089926;28;20476;-74
2023/11/04 09:38:40;;;;;;;7.30;6.30;;;;;;;8.93;77.51;95748.03;5085395;28;20032;-73
2023/11/04 09:41:05;;;;;;;7.38;6.10;;;;;;;8.81;76.78;95728.91;5098306;28;20028;-73
2023/11/04 09:43:30;;;;;;;6.50;5.85;;;;;;;9.04;76.54;95752.94;5085225;28;20483;-74
2023/11/04 09:45:56;;;;;;;7.05;5.57;;;;;;;9.06;76.50;95733.84;5097908;28;20047;-74
2023/11/04 09:48:22;;;;;;;8.43;5.78;;;;;;;9.14;76.31;95735.06;5084953;28;20035;-73
2023/11/04 09:50:51;;;;;;;10.23;7.53;;;;;;;9.22;76.79;95750.50;5098407;28;20499;-73
2023/11/04 09:53:25;;;;;;;10.25;5.97;;;;;;;9.29;76.06;95743.63;5075350;28;20070;-74
2023/11/04 09:55:54;;;;;;;7.68;6.25;;;;;;;9.30;76.28;95729.13;5075862;28;20415;-74
2023/11/04 09:58:20;;;;;;;6.75;6.03;;;;;;;9.38;75.82;95735.72;5076929;28;20031;-74
2023/11/04 10:00:46;;;;;;;8.20;5.85;;;;;;;9.33;75.55;95717.81;5076457;28;20032;-73
2023/11/04 10:03:12;;;;;;;7.15;6.28;;;;;;;9.52;75.16;95721.19;5076388;28;20024;-73
2023/11/04 10:05:37;;;;;;;10.18;5.13;;;;;;;9.51;75.02;95698.09;5089655;28;20392;-73
2023/11/04 10:08:03;;;;;;;5.82;5.22;;;;;;;9.56;74.65;95695.31;5104006;28;20015;-74
2023/11/04 10:10:29;;;;;;;6.80;5.68;;;;;;;9.62;74.34;95699.50;5086300;28;20036;-73
2023/11/04 10:12:55;;;;;;;7.05;5.20;;;;;;;9.70;74.19;95704.19;5113445;28;20031;-73
2023/11/04 10:15:23;;;;;;;5.28;4.78;;;;;;;9.60;74.35;95672.13;5095020;28;20042;-73
2023/11/04 10:17:48;;;;;;;5.57;5.00;;;;;;;9.83;73.69;95680.25;5113131;28;20020;-73
2023/11/04 10:20:15;;;;;;;5.90;4.47;;;;;;;9.91;73.54;95668.81;5099661;28;20038;-73
2023/11/04 10:22:41;;;;;;;4.78;4.07;;;;;;;9.94;72.98;95663.59;5076297;28;20450;-73
2023/11/04 10:25:10;;;;;;;4.93;4.35;;;;;;;9.95;73.11;95653.66;5086126;28;20142;-74
2023/11/04 10:27:36;;;;;;;4.43;4.03;;;;;;;10.03;72.65;95671.78;5093632;28;20051;-73
2023/11/04 10:30:02;;;;;;;5.10;3.97;;;;;;;10.04;72.86;95662.59;5081207;28;20255;-74
2023/11/04 10:32:33;;;;;;;5.38;3.60;;;;;;;10.20;72.61;95655.81;5083270;28;20028;-74
2023/11/04 10:35:03;;;;;;;4.90;3.50;;;;;;;10.27;72.43;95653.50;5075413;28;20093;-73
2023/11/04 10:37:31;;;;;;;3.35;3.03;;;;;;;10.22;72.07;95642.88;5087775;28;20028;-73
2023/11/04 10:40:05;;;;;;;5.10;3.10;;;;;;;10.36;71.09;95649.78;5112766;28;20023;-73
2023/11/04 10:42:31;;;;;;;3.97;2.90;;;;;;;10.22;70.81;95626.75;5099341;28;20063;-73
2023/11/04 10:44:58;;;;;;;5.70;3.38;;;;;;;10.27;70.45;95631.97;5081606;28;20095;-73
2023/11/04 10:47:47;;;;;;;5.63;3.33;;;;;;;10.19;69.71;95621.97;5101050;22;20020;-73
2023/11/04 10:50:22;;;;;;;4.38;3.10;;;;;;;10.30;69.79;95601.78;5052889;28;20548;-74
2023/11/04 10:52:55;;;;;;;5.43;2.80;;;;;;;10.37;69.78;95616.41;5027342;28;20024;-72
2023/11/04 10:55:24;;;;;;;5.50;3.80;;;;;;;10.40;69.19;95598.84;5070884;28;20036;-74
2023/11/04 10:57:58;;;;;;;3.35;2.70;;;;;;;10.40;69.22;95585.41;5066578;28;20053;-73
2023/11/04 11:00:25;;;;;;;4.15;2.70;;;;;;;10.51;69.04;95597.50;5035380;28;20044;-72
2023/11/04 11:02:52;;;;;;;3.80;3.05;;;;;;;10.54;68.95;95578.06;5022547;28;20142;-73
2023/11/04 11:05:22;;;;;;;2.90;2.28;;;;;;;10.54;68.63;95585.31;5035125;28;20033;-73
2023/11/04 11:07:48;;;;;;;5.07;3.17;;;;;;;10.55;69.03;95576.94;5019145;28;20033;-73
2023/11/04 11:10:16;;;;;;;4.25;3.38;;;;;;;10.58;68.87;95554.78;5035521;28;20068;-73
2023/11/04 11:13:07;;;;;;;3.78;2.80;;;;;;;10.72;69.07;95560.09;5035436;28;20147;-73
2023/11/04 11:15:33;;;;;;;2.92;2.50;;;;;;;10.73;68.70;95548.22;5034816;28;20041;-73
2023/11/04 11:17:59;;;;;;;5.53;2.78;;;;;;;10.74;68.36;95547.09;5035237;28;20027;-72
2023/11/04 11:20:29;;;;;;;2.72;2.40;;;;;;;10.80;68.14;95544.00;5034837;28;20069;-73
2023/11/04 11:23:00;;;;;;;3.08;2.50;;;;;;;10.88;67.99;95542.41;5034353;28;20049;-74
2023/11/04 11:25:33;;;;;;;2.55;2.28;;;;;;;10.92;67.80;95540.72;5055289;28;20036;-73
2023/11/04 11:28:14;;;;;;;2.80;2.60;;;;;;;10.90;67.58;95530.22;5033942;28;20037;-74
2023/11/04 11:30:40;;;;;;;4.07;2.17;;;;;;;10.90;67.14;95532.13;5034810;28;20047;-74